Time;durP1;ratioP1;P1;durP2;ratioP2;P2;SDS_P1;SDS_P2;PMS_P1;PMS_P2;Temp;Humidity;BMP_temperature;BMP_pressure;BME280_temperature;BME280_humidity;BME280_pressure;Samples;Min_cycle;Max_cycle;Signal;HPM_P1;HPM_P2
2020/12/16 00:02:14;;;;;;;60.25;31.50;;;;;;;;;;5091883;28;20020;-52
2020/12/16 00:04:40;;;;;;;55.75;29.40;;;;;;;;;;5091137;28;20035;-53
2020/12/16 00:07:06;;;;;;;56.30;29.75;;;;;;;;;;5091577;28;20066;-51
2020/12/16 00:09:32;;;;;;;56.55;30.27;;;;;;;;;;5090931;28;20024;-52
2020/12/16 00:11:58;;;;;;;59.97;32.78;;;;;;;;;;5091865;28;20020;-53
2020/12/16 00:14:24;;;;;;;54.50;28.40;;;;;;;;;;5092156;28;20032;-53
2020/12/16 00:16:50;;;;;;;55.33;29.30;;;;;;;;;;5093258;28;20027;-52
2020/12/16 00:19:16;;;;;;;55.05;27.85;;;;;;;;;;5096133;28;20062;-51
2020/12/16 00:21:42;;;;;;;54.55;27.75;;;;;;;;;;5095514;28;20050;-52
2020/12/16 00:24:08;;;;;;;51.60;27.67;;;;;;;;;;5095839;28;20040;-54
2020/12/16 00:26:34;;;;;;;52.60;29.10;;;;;;;;;;5095991;28;20028;-52
2020/12/16 00:29:00;;;;;;;66.75;32.97;;;;;;;;;;5095151;28;20020;-50
2020/12/16 00:31:26;;;;;;;63.45;31.77;;;;;;;;;;5093881;28;20399;-52
2020/12/16 00:33:52;;;;;;;73.78;36.75;;;;;;;;;;5095216;28;20468;-52
2020/12/16 00:36:19;;;;;;;64.85;33.72;;;;;;;;;;5094833;28;20024;-54
2020/12/16 00:38:47;;;;;;;53.92;27.83;;;;;;;;;;5092571;28;20031;-53
2020/12/16 00:41:14;;;;;;;59.45;30.38;;;;;;;;;;5094974;28;20024;-52
2020/12/16 00:43:40;;;;;;;57.20;30.25;;;;;;;;;;5082289;28;20468;-53
2020/12/16 00:46:06;;;;;;;57.67;31.10;;;;;;;;;;5076442;28;20029;-53
2020/12/16 00:48:32;;;;;;;61.25;32.45;;;;;;;;;;5094711;28;20379;-53
2020/12/16 00:50:58;;;;;;;59.28;30.83;;;;;;;;;;5095052;28;20103;-53
2020/12/16 00:53:24;;;;;;;55.25;28.83;;;;;;;;;;5094355;28;20109;-50
2020/12/16 00:55:50;;;;;;;62.60;33.08;;;;;;;;;;5095289;28;20348;-54
2020/12/16 00:58:16;;;;;;;57.60;29.92;;;;;;;;;;5094559;28;20636;-54
2020/12/16 01:00:43;;;;;;;53.35;28.35;;;;;;;;;;5094408;28;20030;-54
2020/12/16 01:03:09;;;;;;;57.97;30.60;;;;;;;;;;5093433;28;20039;-53
2020/12/16 01:05:35;;;;;;;58.38;30.40;;;;;;;;;;5094562;28;20040;-54
2020/12/16 01:08:02;;;;;;;59.92;29.92;;;;;;;;;;5094555;28;20414;-53
2020/12/16 01:10:28;;;;;;;60.58;31.55;;;;;;;;;;5094828;28;20114;-52
2020/12/16 01:12:54;;;;;;;65.15;33.10;;;;;;;;;;5094676;28;20020;-51
2020/12/16 01:15:20;;;;;;;59.80;30.27;;;;;;;;;;5094864;28;20024;-52
2020/12/16 01:17:47;;;;;;;59.72;30.63;;;;;;;;;;5095201;28;20350;-52
2020/12/16 01:20:13;;;;;;;53.33;28.35;;;;;;;;;;5093596;28;20028;-52
2020/12/16 01:22:41;;;;;;;54.28;28.75;;;;;;;;;;5094076;28;20028;-53
2020/12/16 01:25:07;;;;;;;59.30;30.60;;;;;;;;;;5093950;28;20107;-52
2020/12/16 01:27:33;;;;;;;60.70;30.73;;;;;;;;;;5091202;28;20016;-52
2020/12/16 01:30:00;;;;;;;59.13;30.33;;;;;;;;;;5093808;28;20020;-53
2020/12/16 01:32:26;;;;;;;56.72;30.98;;;;;;;;;;5093528;28;20024;-54
2020/12/16 01:34:52;;;;;;;55.85;29.67;;;;;;;;;;5093711;28;20032;-54
2020/12/16 01:37:18;;;;;;;59.75;29.90;;;;;;;;;;5094158;28;20035;-53
2020/12/16 01:39:45;;;;;;;56.63;30.50;;;;;;;;;;5092422;28;20035;-51
2020/12/16 01:42:13;;;;;;;60.60;31.42;;;;;;;;;;5093927;28;20109;-51
2020/12/16 01:44:40;;;;;;;63.08;33.28;;;;;;;;;;5093961;28;20391;-52
2020/12/16 01:47:06;;;;;;;65.20;33.83;;;;;;;;;;5093668;28;20026;-55
2020/12/16 01:49:32;;;;;;;64.32;33.40;;;;;;;;;;5093516;28;20032;-52
2020/12/16 01:51:59;;;;;;;66.65;32.80;;;;;;;;;;5093744;28;20031;-52
2020/12/16 01:54:25;;;;;;;61.80;32.78;;;;;;;;;;5092682;28;20399;-55
2020/12/16 01:56:54;;;;;;;62.60;33.17;;;;;;;;;;5093423;28;20028;-53
2020/12/16 01:59:21;;;;;;;58.75;29.95;;;;;;;;;;5093632;28;20035;-52
2020/12/16 02:01:48;;;;;;;57.08;30.02;;;;;;;;;;5092362;28;20024;-52
2020/12/16 02:04:17;;;;;;;52.47;27.42;;;;;;;;;;5092290;28;20095;-52
2020/12/16 02:06:43;;;;;;;53.28;26.67;;;;;;;;;;5092719;28;20123;-53
2020/12/16 02:09:10;;;;;;;53.50;26.42;;;;;;;;;;5092280;28;20051;-50
2020/12/16 02:11:37;;;;;;;50.45;25.98;;;;;;;;;;5093163;28;20500;-54
2020/12/16 02:14:04;;;;;;;49.90;25.67;;;;;;;;;;5091789;28;20059;-51
2020/12/16 02:16:31;;;;;;;49.63;25.42;;;;;;;;;;5092358;28;20031;-50
2020/12/16 02:18:57;;;;;;;50.60;25.88;;;;;;;;;;5092501;28;20043;-54
2020/12/16 02:21:23;;;;;;;53.88;27.95;;;;;;;;;;5074184;28;20024;-51
2020/12/16 02:23:51;;;;;;;51.38;27.17;;;;;;;;;;5092328;28;20060;-51
2020/12/16 02:26:17;;;;;;;49.83;25.88;;;;;;;;;;5093026;28;20027;-50
2020/12/16 02:28:43;;;;;;;50.83;26.15;;;;;;;;;;5092848;28;20019;-54
2020/12/16 02:31:12;;;;;;;55.33;30.20;;;;;;;;;;5092428;28;20030;-53
2020/12/16 02:33:38;;;;;;;60.80;32.25;;;;;;;;;;5092869;28;20028;-54
2020/12/16 02:36:05;;;;;;;58.50;31.25;;;;;;;;;;5086035;28;20035;-52
2020/12/16 02:38:32;;;;;;;67.00;33.58;;;;;;;;;;5076902;28;20024;-52
2020/12/16 02:40:58;;;;;;;84.82;43.05;;;;;;;;;;5074541;28;20100;-52
2020/12/16 02:43:24;;;;;;;59.38;32.50;;;;;;;;;;5073933;28;20024;-54
2020/12/16 02:45:50;;;;;;;50.70;27.55;;;;;;;;;;5081883;28;20111;-52
2020/12/16 02:48:16;;;;;;;79.80;42.17;;;;;;;;;;5075460;28;20032;-51
2020/12/16 02:50:42;;;;;;;50.35;28.02;;;;;;;;;;5072515;28;20480;-50
2020/12/16 02:53:08;;;;;;;66.40;35.60;;;;;;;;;;5091461;28;20102;-50
2020/12/16 02:55:34;;;;;;;66.78;37.13;;;;;;;;;;5092575;28;20032;-50
2020/12/16 02:58:00;;;;;;;54.17;29.17;;;;;;;;;;5091853;28;20024;-52
2020/12/16 03:00:26;;;;;;;51.90;28.30;;;;;;;;;;5092377;28;20059;-53
2020/12/16 03:02:52;;;;;;;50.08;28.15;;;;;;;;;;5092011;28;20020;-51
2020/12/16 03:05:19;;;;;;;55.88;29.05;;;;;;;;;;5092058;28;20086;-54
2020/12/16 03:07:45;;;;;;;57.58;29.17;;;;;;;;;;5092202;28;20020;-52
2020/12/16 03:10:11;;;;;;;55.95;29.38;;;;;;;;;;5088013;28;20048;-50
2020/12/16 03:12:37;;;;;;;59.40;31.40;;;;;;;;;;5085139;28;20028;-53
2020/12/16 03:15:03;;;;;;;50.38;28.00;;;;;;;;;;5091782;28;20055;-51
2020/12/16 03:17:29;;;;;;;52.38;28.92;;;;;;;;;;5091878;28;20028;-50
2020/12/16 03:19:55;;;;;;;51.95;28.45;;;;;;;;;;5090366;28;20024;-50
2020/12/16 03:22:21;;;;;;;60.53;31.17;;;;;;;;;;5091512;28;20462;-52
2020/12/16 03:24:47;;;;;;;61.20;30.90;;;;;;;;;;5091770;28;20513;-54
2020/12/16 03:27:13;;;;;;;56.92;30.20;;;;;;;;;;5092068;28;20507;-54
2020/12/16 03:29:39;;;;;;;59.75;30.05;;;;;;;;;;5092042;28;20383;-53
2020/12/16 03:32:05;;;;;;;61.28;33.33;;;;;;;;;;5083650;28;20039;-51
2020/12/16 03:34:31;;;;;;;65.68;33.97;;;;;;;;;;5072326;28;20024;-52
2020/12/16 03:36:57;;;;;;;66.15;32.83;;;;;;;;;;5087216;28;20020;-50
2020/12/16 03:39:23;;;;;;;56.25;29.17;;;;;;;;;;5091544;28;20023;-50
2020/12/16 03:41:53;;;;;;;54.67;30.02;;;;;;;;;;5091730;28;20012;-50
2020/12/16 03:44:19;;;;;;;54.95;30.08;;;;;;;;;;5091281;28;20101;-54
2020/12/16 03:46:45;;;;;;;59.85;31.63;;;;;;;;;;5073211;28;20082;-53
2020/12/16 03:49:11;;;;;;;60.70;32.90;;;;;;;;;;5091095;28;20020;-54
2020/12/16 03:51:37;;;;;;;57.47;31.77;;;;;;;;;;5091656;28;20379;-51
2020/12/16 03:54:03;;;;;;;58.13;30.73;;;;;;;;;;5091315;28;20052;-53
2020/12/16 03:56:29;;;;;;;58.45;30.90;;;;;;;;;;5091914;28;20032;-53
2020/12/16 03:58:55;;;;;;;59.10;31.60;;;;;;;;;;5091482;28;20063;-52
2020/12/16 04:01:22;;;;;;;56.92;31.75;;;;;;;;;;5091991;28;20024;-53
2020/12/16 04:03:48;;;;;;;58.40;31.98;;;;;;;;;;5091631;28;20028;-54
2020/12/16 04:06:14;;;;;;;55.85;30.30;;;;;;;;;;5092010;28;20491;-53
2020/12/16 04:08:41;;;;;;;55.80;29.95;;;;;;;;;;5092203;28;20024;-53
2020/12/16 04:11:17;;;;;;;57.00;29.75;;;;;;;;;;5091782;28;20032;-51
2020/12/16 04:13:43;;;;;;;57.72;29.60;;;;;;;;;;5092249;28;20436;-52
2020/12/16 04:16:11;;;;;;;55.85;30.42;;;;;;;;;;5091743;28;20036;-53
2020/12/16 04:18:37;;;;;;;55.45;30.45;;;;;;;;;;5091608;28;20032;-54
2020/12/16 04:21:09;;;;;;;60.47;30.88;;;;;;;;;;5091506;28;20020;-53
2020/12/16 04:23:36;;;;;;;59.17;30.90;;;;;;;;;;5091692;28;20020;-53
2020/12/16 04:26:02;;;;;;;55.88;30.50;;;;;;;;;;5091899;28;20031;-53
2020/12/16 04:28:28;;;;;;;52.03;28.85;;;;;;;;;;5091660;28;20113;-54
2020/12/16 04:30:54;;;;;;;56.33;29.48;;;;;;;;;;5091694;28;20020;-52
2020/12/16 04:33:20;;;;;;;64.88;31.48;;;;;;;;;;5091172;28;20044;-53
2020/12/16 04:35:47;;;;;;;84.90;37.15;;;;;;;;;;5090593;28;20016;-53
2020/12/16 04:38:13;;;;;;;53.55;27.10;;;;;;;;;;5091626;28;20040;-52
2020/12/16 04:40:39;;;;;;;55.88;27.77;;;;;;;;;;5091498;28;20012;-53
2020/12/16 04:43:06;;;;;;;69.68;31.48;;;;;;;;;;5091735;28;20399;-51
2020/12/16 04:45:33;;;;;;;102.00;39.45;;;;;;;;;;5091145;28;20040;-53
2020/12/16 04:47:59;;;;;;;82.30;34.33;;;;;;;;;;5091095;28;20055;-54
2020/12/16 04:50:26;;;;;;;76.43;35.00;;;;;;;;;;5090621;28;20032;-54
2020/12/16 04:52:52;;;;;;;112.53;41.85;;;;;;;;;;5091267;28;20036;-51
2020/12/16 04:55:19;;;;;;;100.45;41.50;;;;;;;;;;5091472;28;20054;-51
2020/12/16 04:57:52;;;;;;;79.65;36.85;;;;;;;;;;5091517;28;20023;-53
2020/12/16 05:00:19;;;;;;;84.10;38.58;;;;;;;;;;5091047;28;20024;-54
2020/12/16 05:03:04;;;;;;;81.38;40.15;;;;;;;;;;5091202;28;20019;-53
2020/12/16 05:05:32;;;;;;;92.95;45.13;;;;;;;;;;5076866;28;20403;-53
2020/12/16 05:07:58;;;;;;;110.80;57.47;;;;;;;;;;5095067;28;20091;-54
2020/12/16 05:10:38;;;;;;;110.32;57.25;;;;;;;;;;5094565;28;20111;-52
2020/12/16 05:13:11;;;;;;;79.90;40.83;;;;;;;;;;5094329;28;20024;-53
2020/12/16 05:15:38;;;;;;;71.60;38.92;;;;;;;;;;5094875;28;20030;-54
2020/12/16 05:18:12;;;;;;;67.10;35.45;;;;;;;;;;5094419;28;20023;-53
2020/12/16 05:20:38;;;;;;;64.57;32.28;;;;;;;;;;5094360;28;20021;-53
2020/12/16 05:23:06;;;;;;;57.78;31.42;;;;;;;;;;5091599;28;20038;-52
2020/12/16 05:25:32;;;;;;;62.05;33.15;;;;;;;;;;5093917;28;20090;-50
2020/12/16 05:27:59;;;;;;;60.38;32.45;;;;;;;;;;5093520;28;20016;-50
2020/12/16 05:30:25;;;;;;;59.65;30.17;;;;;;;;;;5093687;28;20024;-53
2020/12/16 05:32:52;;;;;;;56.88;28.98;;;;;;;;;;5093583;28;20130;-54
2020/12/16 05:35:24;;;;;;;57.47;28.42;;;;;;;;;;5093740;28;20032;-53
2020/12/16 05:37:50;;;;;;;58.13;28.95;;;;;;;;;;5093320;28;20103;-51
2020/12/16 05:40:20;;;;;;;59.35;30.80;;;;;;;;;;5088803;28;20504;-51
2020/12/16 05:42:47;;;;;;;59.20;29.40;;;;;;;;;;5093661;28;20028;-54
2020/12/16 05:45:14;;;;;;;61.45;30.00;;;;;;;;;;5093428;28;20047;-51
2020/12/16 05:47:42;;;;;;;61.88;31.08;;;;;;;;;;5092543;28;20024;-52
2020/12/16 05:50:15;;;;;;;57.20;28.92;;;;;;;;;;5093998;28;20030;-52
2020/12/16 05:52:41;;;;;;;63.35;29.95;;;;;;;;;;5093655;28;20123;-53
2020/12/16 05:55:07;;;;;;;64.65;30.60;;;;;;;;;;5094341;28;20110;-52
2020/12/16 05:57:33;;;;;;;56.60;28.63;;;;;;;;;;5094133;28;20043;-53
2020/12/16 06:00:12;;;;;;;61.55;30.10;;;;;;;;;;5094231;28;20020;-53
2020/12/16 06:02:40;;;;;;;59.90;27.73;;;;;;;;;;5093485;28;21639;-54
2020/12/16 06:05:08;;;;;;;57.40;29.40;;;;;;;;;;5093555;28;20032;-52
2020/12/16 06:07:38;;;;;;;54.47;27.08;;;;;;;;;;5092975;28;20028;-51
2020/12/16 06:10:04;;;;;;;54.72;28.05;;;;;;;;;;5093021;28;20237;-51
2020/12/16 06:12:31;;;;;;;57.60;30.13;;;;;;;;;;5092831;28;20031;-53
2020/12/16 06:15:03;;;;;;;59.70;29.83;;;;;;;;;;5089464;28;20099;-52
2020/12/16 06:17:31;;;;;;;57.88;29.67;;;;;;;;;;5093754;28;20016;-54
2020/12/16 06:20:00;;;;;;;51.97;27.77;;;;;;;;;;5093363;28;20051;-53
2020/12/16 06:22:32;;;;;;;59.22;29.38;;;;;;;;;;5093393;28;20029;-50
2020/12/16 06:24:58;;;;;;;55.70;29.15;;;;;;;;;;5093611;28;20044;-53
2020/12/16 06:27:27;;;;;;;58.75;29.63;;;;;;;;;;5093328;28;20035;-51
2020/12/16 06:29:56;;;;;;;61.03;30.25;;;;;;;;;;5093945;28;20062;-54
2020/12/16 06:32:33;;;;;;;55.50;27.95;;;;;;;;;;5093596;28;20115;-53
2020/12/16 06:34:59;;;;;;;48.75;26.67;;;;;;;;;;5093879;28;20024;-53
2020/12/16 06:37:25;;;;;;;50.38;28.75;;;;;;;;;;5093408;28;20409;-53
2020/12/16 06:39:51;;;;;;;46.47;25.92;;;;;;;;;;5093630;28;20499;-53
2020/12/16 06:42:32;;;;;;;67.70;34.25;;;;;;;;;;5093664;28;20383;-53
2020/12/16 06:45:16;;;;;;;67.13;34.40;;;;;;;;;;5092102;28;20040;-53
2020/12/16 06:47:43;;;;;;;73.45;37.78;;;;;;;;;;5094890;28;20119;-53
2020/12/16 06:50:20;;;;;;;58.17;32.05;;;;;;;;;;5093424;28;20024;-52
2020/12/16 06:52:46;;;;;;;68.80;38.40;;;;;;;;;;5092260;28;20385;-51
2020/12/16 06:55:12;;;;;;;73.32;41.65;;;;;;;;;;5093513;28;20028;-52
2020/12/16 06:57:48;;;;;;;72.60;43.45;;;;;;;;;;5092924;28;20028;-53
2020/12/16 07:00:18;;;;;;;64.75;37.67;;;;;;;;;;5093047;28;20031;-51
2020/12/16 07:02:44;;;;;;;65.03;37.53;;;;;;;;;;5093096;28;20027;-52
2020/12/16 07:05:29;;;;;;;52.75;32.47;;;;;;;;;;5093180;28;20055;-53
2020/12/16 07:07:55;;;;;;;42.70;24.08;;;;;;;;;;5092776;28;20016;-53
2020/12/16 07:10:33;;;;;;;42.22;23.70;;;;;;;;;;5093106;28;20024;-51
2020/12/16 07:13:32;;;;;;;62.17;32.47;;;;;;;;;;5092864;28;20028;-53
2020/12/16 07:15:58;;;;;;;57.17;31.95;;;;;;;;;;5010938;28;20034;-53
2020/12/16 07:18:26;;;;;;;54.85;30.60;;;;;;;;;;5030519;28;20029;-54
2020/12/16 07:20:58;;;;;;;51.95;28.88;;;;;;;;;;5030654;28;20029;-54
2020/12/16 07:23:28;;;;;;;62.97;34.83;;;;;;;;;;5029962;28;20034;-51
2020/12/16 07:26:02;;;;;;;46.63;25.77;;;;;;;;;;5029921;28;20050;-50
2020/12/16 07:28:32;;;;;;;58.30;32.30;;;;;;;;;;5030434;28;20067;-51
2020/12/16 07:30:58;;;;;;;54.70;32.63;;;;;;;;;;5030479;28;20026;-51
2020/12/16 07:33:24;;;;;;;58.53;33.30;;;;;;;;;;5030574;28;20021;-51
2020/12/16 07:35:50;;;;;;;58.60;30.30;;;;;;;;;;5030399;28;20025;-51
2020/12/16 07:38:16;;;;;;;56.38;29.95;;;;;;;;;;5030114;28;20047;-51
2020/12/16 07:40:51;;;;;;;57.47;29.27;;;;;;;;;;5030229;28;20017;-51
2020/12/16 07:43:18;;;;;;;56.50;28.98;;;;;;;;;;5030261;28;20041;-51
2020/12/16 07:45:44;;;;;;;55.58;28.08;;;;;;;;;;5029822;28;20045;-51
2020/12/16 07:48:14;;;;;;;55.92;28.05;;;;;;;;;;5030133;28;20029;-50
2020/12/16 07:50:40;;;;;;;62.08;29.67;;;;;;;;;;5038720;28;20348;-51
2020/12/16 07:53:06;;;;;;;58.33;29.60;;;;;;;;;;5085016;28;20087;-53
2020/12/16 07:55:38;;;;;;;55.72;29.88;;;;;;;;;;5072009;28;20024;-52
2020/12/16 07:58:08;;;;;;;74.13;38.58;;;;;;;;;;5072127;28;20055;-52
2020/12/16 08:00:34;;;;;;;67.82;33.42;;;;;;;;;;5072067;28;20024;-52
2020/12/16 08:03:02;;;;;;;57.85;30.27;;;;;;;;;;5071819;28;20051;-52
2020/12/16 08:05:28;;;;;;;67.10;31.95;;;;;;;;;;5071971;28;20059;-51
2020/12/16 08:08:00;;;;;;;58.10;29.50;;;;;;;;;;5071719;28;20024;-53
2020/12/16 08:10:26;;;;;;;66.85;33.00;;;;;;;;;;5071743;28;20063;-53
2020/12/16 08:12:54;;;;;;;54.03;28.67;;;;;;;;;;5071847;28;20021;-52
2020/12/16 08:15:20;;;;;;;53.72;27.60;;;;;;;;;;5071867;28;20024;-51
2020/12/16 08:17:47;;;;;;;57.17;28.10;;;;;;;;;;5071628;28;20031;-51
2020/12/16 08:20:18;;;;;;;57.03;27.73;;;;;;;;;;5071892;28;20107;-51
2020/12/16 08:22:49;;;;;;;57.08;29.05;;;;;;;;;;5071609;28;20032;-53
2020/12/16 08:25:17;;;;;;;54.65;28.98;;;;;;;;;;5088340;28;20878;-51
2020/12/16 08:27:44;;;;;;;49.75;26.30;;;;;;;;;;5091967;28;20020;-51
2020/12/16 08:30:12;;;;;;;54.47;27.67;;;;;;;;;;5091680;28;20024;-51
2020/12/16 08:32:50;;;;;;;60.38;28.92;;;;;;;;;;5091870;28;20032;-51
2020/12/16 08:35:21;;;;;;;54.72;29.27;;;;;;;;;;5091506;28;20099;-53
2020/12/16 08:37:50;;;;;;;55.95;28.92;;;;;;;;;;5093403;28;20459;-53
2020/12/16 08:40:17;;;;;;;54.60;28.15;;;;;;;;;;5095499;28;20111;-54
2020/12/16 08:42:43;;;;;;;46.53;23.65;;;;;;;;;;5095520;28;20028;-53
2020/12/16 08:45:09;;;;;;;47.72;24.67;;;;;;;;;;5095216;28;20065;-53
2020/12/16 08:47:36;;;;;;;52.13;26.27;;;;;;;;;;5095278;28;20527;-54
2020/12/16 08:50:03;;;;;;;108.03;49.90;;;;;;;;;;5095725;28;20032;-52
2020/12/16 08:52:38;;;;;;;82.07;40.97;;;;;;;;;;5094852;28;20028;-54
2020/12/16 08:55:14;;;;;;;69.80;34.72;;;;;;;;;;5095650;28;20028;-54
2020/12/16 08:57:54;;;;;;;55.80;28.20;;;;;;;;;;5095342;28;20055;-54
2020/12/16 09:00:25;;;;;;;52.47;28.52;;;;;;;;;;5095460;28;20020;-54
2020/12/16 09:03:01;;;;;;;62.83;33.35;;;;;;;;;;5095232;28;20054;-52
2020/12/16 09:05:28;;;;;;;57.00;30.27;;;;;;;;;;5095245;28;20040;-53
2020/12/16 09:08:10;;;;;;;47.72;25.75;;;;;;;;;;5090933;28;20115;-54
2020/12/16 09:10:37;;;;;;;44.55;24.52;;;;;;;;;;5074776;28;20039;-55
2020/12/16 09:13:07;;;;;;;41.10;23.83;;;;;;;;;;5074973;28;20503;-55
2020/12/16 09:15:34;;;;;;;49.25;26.38;;;;;;;;;;5075121;28;20021;-55
2020/12/16 09:18:00;;;;;;;45.13;25.83;;;;;;;;;;5074631;28;20099;-55
2020/12/16 09:20:26;;;;;;;50.08;24.90;;;;;;;;;;5074952;28;20027;-55
2020/12/16 09:22:56;;;;;;;47.20;26.60;;;;;;;;;;5074551;28;20123;-54
2020/12/16 09:25:22;;;;;;;47.47;25.70;;;;;;;;;;5092535;28;20437;-54
2020/12/16 09:27:55;;;;;;;39.45;21.25;;;;;;;;;;5095010;28;20472;-54
2020/12/16 09:30:31;;;;;;;42.45;23.70;;;;;;;;;;5094554;28;20077;-55
2020/12/16 09:32:58;;;;;;;42.40;23.23;;;;;;;;;;5084065;28;20527;-55
2020/12/16 09:35:25;;;;;;;44.72;23.60;;;;;;;;;;5091199;28;20024;-54
2020/12/16 09:37:51;;;;;;;33.83;19.25;;;;;;;;;;5068025;28;20375;-54
2020/12/16 09:40:18;;;;;;;35.05;19.25;;;;;;;;;;5089415;28;20028;-55
2020/12/16 09:42:57;;;;;;;33.78;19.80;;;;;;;;;;5094704;28;20069;-54
2020/12/16 09:45:24;;;;;;;44.42;23.90;;;;;;;;;;5093566;28;20036;-53
2020/12/16 09:47:51;;;;;;;38.22;21.25;;;;;;;;;;5081163;28;20032;-53
2020/12/16 09:50:26;;;;;;;42.28;23.85;;;;;;;;;;5093872;28;20033;-55
2020/12/16 09:52:56;;;;;;;64.90;35.33;;;;;;;;;;5094158;28;20047;-54
2020/12/16 09:55:22;;;;;;;48.78;26.40;;;;;;;;;;5094501;28;20032;-54
2020/12/16 09:58:05;;;;;;;56.72;30.23;;;;;;;;;;5094337;28;20019;-54
2020/12/16 10:00:32;;;;;;;57.10;32.53;;;;;;;;;;5094129;28;20051;-54
2020/12/16 10:03:05;;;;;;;47.58;27.73;;;;;;;;;;5093987;28;20023;-54
2020/12/16 10:05:35;;;;;;;57.60;31.58;;;;;;;;;;5094008;28;20046;-53
2020/12/16 10:08:01;;;;;;;57.92;31.52;;;;;;;;;;5093666;28;20528;-54
2020/12/16 10:10:29;;;;;;;43.83;26.25;;;;;;;;;;5094302;28;20099;-54
2020/12/16 10:12:55;;;;;;;37.60;22.20;;;;;;;;;;5093981;28;20009;-54
2020/12/16 10:15:21;;;;;;;40.85;23.80;;;;;;;;;;5093820;28;20024;-54
2020/12/16 10:17:47;;;;;;;49.72;30.15;;;;;;;;;;5093800;28;20074;-55
2020/12/16 10:20:13;;;;;;;46.70;28.65;;;;;;;;;;5093674;28;20028;-55
2020/12/16 10:22:42;;;;;;;35.15;21.75;;;;;;;;;;5079987;28;20029;-55
2020/12/16 10:25:09;;;;;;;39.03;24.45;;;;;;;;;;5089685;28;20044;-53
2020/12/16 10:27:35;;;;;;;34.95;23.40;;;;;;;;;;5093840;28;20036;-54
2020/12/16 10:30:02;;;;;;;31.88;20.85;;;;;;;;;;5093378;28;20028;-55
2020/12/16 10:32:28;;;;;;;31.83;20.17;;;;;;;;;;5093579;28;20109;-55
2020/12/16 10:34:54;;;;;;;35.85;22.83;;;;;;;;;;5093732;28;20020;-55
2020/12/16 10:37:24;;;;;;;34.30;21.77;;;;;;;;;;5093589;28;20372;-56
2020/12/16 10:39:50;;;;;;;36.00;22.80;;;;;;;;;;5093369;28;20038;-55
2020/12/16 10:42:17;;;;;;;31.10;19.98;;;;;;;;;;5093200;28;20044;-56
2020/12/16 10:44:43;;;;;;;31.17;20.35;;;;;;;;;;5093159;28;20436;-56
2020/12/16 10:47:09;;;;;;;35.63;23.65;;;;;;;;;;5093205;28;20103;-56
2020/12/16 10:49:36;;;;;;;40.95;25.77;;;;;;;;;;5093702;28;20374;-55
2020/12/16 10:52:04;;;;;;;31.98;21.92;;;;;;;;;;5079807;28;20020;-52
2020/12/16 10:54:30;;;;;;;34.42;23.90;;;;;;;;;;5072564;28;20044;-55
2020/12/16 10:56:56;;;;;;;36.33;22.80;;;;;;;;;;5073010;28;20058;-55
2020/12/16 10:59:22;;;;;;;34.53;21.48;;;;;;;;;;5072663;28;20725;-54
2020/12/16 11:01:49;;;;;;;35.20;21.83;;;;;;;;;;5071912;28;20080;-52
2020/12/16 11:04:15;;;;;;;37.70;22.67;;;;;;;;;;5072419;28;20395;-52
2020/12/16 11:06:48;;;;;;;36.20;23.42;;;;;;;;;;5072825;28;20031;-54
2020/12/16 11:09:15;;;;;;;37.53;21.90;;;;;;;;;;5072560;28;20103;-54
2020/12/16 11:11:49;;;;;;;40.17;24.17;;;;;;;;;;5055163;28;20012;-55
2020/12/16 11:14:15;;;;;;;37.10;21.25;;;;;;;;;;5072111;28;20099;-52
2020/12/16 11:16:42;;;;;;;36.03;20.85;;;;;;;;;;5072542;28;20163;-56
2020/12/16 11:19:08;;;;;;;38.00;23.30;;;;;;;;;;5072224;28;20020;-55
2020/12/16 11:21:38;;;;;;;51.88;31.65;;;;;;;;;;5072447;28;20053;-55
2020/12/16 11:24:05;;;;;;;39.40;24.73;;;;;;;;;;5072359;28;20476;-55
2020/12/16 11:26:31;;;;;;;39.03;23.40;;;;;;;;;;5072506;28;20032;-55
2020/12/16 11:28:57;;;;;;;37.45;23.42;;;;;;;;;;5072038;28;20021;-54
2020/12/16 11:31:23;;;;;;;60.17;32.92;;;;;;;;;;5072226;28;20031;-55
2020/12/16 11:33:49;;;;;;;38.60;24.13;;;;;;;;;;5072216;28;20046;-55
2020/12/16 11:36:15;;;;;;;39.83;24.67;;;;;;;;;;5072028;28;20454;-53
2020/12/16 11:38:41;;;;;;;36.65;22.92;;;;;;;;;;5071948;28;20464;-55
2020/12/16 11:41:07;;;;;;;36.42;22.42;;;;;;;;;;5072398;28;20024;-55
2020/12/16 11:43:33;;;;;;;40.03;25.73;;;;;;;;;;5071952;28;20075;-55
2020/12/16 11:45:59;;;;;;;42.55;27.27;;;;;;;;;;5072063;28;20033;-53
2020/12/16 11:48:25;;;;;;;37.58;24.50;;;;;;;;;;5071463;28;20020;-56
2020/12/16 11:50:51;;;;;;;35.45;22.88;;;;;;;;;;5071644;28;20066;-55
2020/12/16 11:53:18;;;;;;;39.72;23.67;;;;;;;;;;5079591;28;20048;-55
2020/12/16 11:55:44;;;;;;;37.63;22.50;;;;;;;;;;5091832;28;20020;-56
2020/12/16 11:58:10;;;;;;;37.22;22.23;;;;;;;;;;5091386;28;20020;-55
2020/12/16 12:00:36;;;;;;;38.63;23.90;;;;;;;;;;5091924;28;20629;-55
2020/12/16 12:03:02;;;;;;;43.75;28.10;;;;;;;;;;5091469;28;20412;-56
2020/12/16 12:05:28;;;;;;;56.72;33.55;;;;;;;;;;5091356;28;20394;-54
2020/12/16 12:07:54;;;;;;;56.60;35.53;;;;;;;;;;5091098;28;20043;-53
2020/12/16 12:10:20;;;;;;;40.42;25.00;;;;;;;;;;5089908;28;20368;-53
2020/12/16 12:12:46;;;;;;;40.40;25.48;;;;;;;;;;5093202;28;20016;-55
2020/12/16 12:15:12;;;;;;;43.13;27.35;;;;;;;;;;5089502;28;20109;-55
2020/12/16 12:17:38;;;;;;;53.65;34.47;;;;;;;;;;5077433;28;20023;-56
2020/12/16 12:20:08;;;;;;;74.13;44.30;;;;;;;;;;5089725;28;20024;-55
2020/12/16 12:22:34;;;;;;;69.15;41.85;;;;;;;;;;5095772;28;20028;-56
2020/12/16 12:25:00;;;;;;;55.63;37.28;;;;;;;;;;5093654;28;20438;-56
2020/12/16 12:27:26;;;;;;;73.65;47.75;;;;;;;;;;5095351;28;20046;-54
2020/12/16 12:29:52;;;;;;;56.38;35.25;;;;;;;;;;5095503;28;20055;-57
2020/12/16 12:32:19;;;;;;;53.63;34.00;;;;;;;;;;5095835;28;20020;-55
2020/12/16 12:34:45;;;;;;;64.32;41.28;;;;;;;;;;5095688;28;20090;-57
2020/12/16 12:37:11;;;;;;;48.33;32.53;;;;;;;;;;5095379;28;20019;-57
2020/12/16 12:39:37;;;;;;;62.33;37.75;;;;;;;;;;5094941;28;20035;-55
2020/12/16 12:42:03;;;;;;;53.40;32.97;;;;;;;;;;5095368;28;20020;-57
2020/12/16 12:44:29;;;;;;;51.30;30.80;;;;;;;;;;5095269;28;20036;-57
2020/12/16 12:46:55;;;;;;;60.85;37.13;;;;;;;;;;5095408;28;20475;-54
2020/12/16 12:49:21;;;;;;;55.15;33.00;;;;;;;;;;5095261;28;20122;-55
2020/12/16 12:51:50;;;;;;;47.40;29.70;;;;;;;;;;5094517;28;20024;-54
2020/12/16 12:54:17;;;;;;;63.17;40.38;;;;;;;;;;5077364;28;20492;-56
2020/12/16 12:56:43;;;;;;;58.58;38.38;;;;;;;;;;5074599;28;20035;-56
2020/12/16 12:59:10;;;;;;;56.78;34.92;;;;;;;;;;5070165;28;20032;-56
2020/12/16 13:01:36;;;;;;;63.35;39.55;;;;;;;;;;5073464;28;20072;-53
2020/12/16 13:04:02;;;;;;;54.70;34.78;;;;;;;;;;5073971;28;20029;-57
2020/12/16 13:06:28;;;;;;;70.75;43.47;;;;;;;;;;5074296;28;20028;-54
2020/12/16 13:08:54;;;;;;;101.10;59.90;;;;;;;;;;5086484;28;20056;-53
2020/12/16 13:11:23;;;;;;;67.15;38.78;;;;;;;;;;5074625;28;20059;-56
2020/12/16 13:13:49;;;;;;;68.97;42.28;;;;;;;;;;5073978;28;20411;-54
2020/12/16 13:16:16;;;;;;;73.93;46.45;;;;;;;;;;5074173;28;20046;-56
2020/12/16 13:18:42;;;;;;;74.72;42.40;;;;;;;;;;5073937;28;20060;-54
2020/12/16 13:21:08;;;;;;;75.15;43.78;;;;;;;;;;5073484;28;20028;-55
2020/12/16 13:23:34;;;;;;;65.72;40.80;;;;;;;;;;5073411;28;20492;-55
2020/12/16 13:26:01;;;;;;;66.13;38.88;;;;;;;;;;5073375;28;20381;-55
2020/12/16 13:28:27;;;;;;;82.15;49.22;;;;;;;;;;5074284;28;20081;-53
2020/12/16 13:30:53;;;;;;;69.57;43.58;;;;;;;;;;5074228;28;20028;-56
2020/12/16 13:33:19;;;;;;;68.53;37.33;;;;;;;;;;5073632;28;20107;-52
2020/12/16 13:35:45;;;;;;;68.70;40.72;;;;;;;;;;5074280;28;20036;-55
2020/12/16 13:38:11;;;;;;;75.03;44.80;;;;;;;;;;5073775;28;20059;-53
2020/12/16 13:40:37;;;;;;;62.67;37.92;;;;;;;;;;5073723;28;20143;-55
2020/12/16 13:43:03;;;;;;;62.50;35.53;;;;;;;;;;5079668;28;20074;-55
2020/12/16 13:45:29;;;;;;;102.72;62.35;;;;;;;;;;5073780;28;20046;-54
2020/12/16 13:47:55;;;;;;;72.25;41.97;;;;;;;;;;5074034;28;20028;-55
2020/12/16 13:50:22;;;;;;;74.40;43.72;;;;;;;;;;5073530;28;20029;-52
2020/12/16 13:52:48;;;;;;;67.88;40.28;;;;;;;;;;5072033;28;20051;-55
2020/12/16 13:55:17;;;;;;;82.10;54.55;;;;;;;;;;5070311;28;20044;-52
2020/12/16 13:57:43;;;;;;;153.60;86.32;;;;;;;;;;5064065;28;20116;-52
2020/12/16 14:00:09;;;;;;;117.05;63.67;;;;;;;;;;5056949;28;20392;-52
2020/12/16 14:02:35;;;;;;;72.57;42.88;;;;;;;;;;5053080;28;20025;-52
2020/12/16 14:05:01;;;;;;;87.18;49.30;;;;;;;;;;5053041;28;20021;-52
2020/12/16 14:07:27;;;;;;;71.57;41.90;;;;;;;;;;5069526;28;20106;-55
2020/12/16 14:09:53;;;;;;;82.22;48.65;;;;;;;;;;5061888;28;20027;-53
2020/12/16 14:12:19;;;;;;;82.90;49.22;;;;;;;;;;5075886;28;20567;-52
2020/12/16 14:14:45;;;;;;;86.07;49.97;;;;;;;;;;5091049;28;20079;-53
2020/12/16 14:17:15;;;;;;;92.75;53.92;;;;;;;;;;5088056;28;20059;-52
2020/12/16 14:19:41;;;;;;;110.53;59.88;;;;;;;;;;5071670;28;20043;-54